sensor_id;sensor_type;location;lat;lon;timestamp;P1;durP1;ratioP1;P2;durP2;ratioP2
57311;SDS011;43154;50.966;18.316;2023-01-24T00:02:01;67.50;;;21.60;;
57311;SDS011;43154;50.966;18.316;2023-01-24T00:04:27;80.20;;;23.10;;
57311;SDS011;43154;50.966;18.316;2023-01-24T00:06:53;67.40;;;20.20;;
57311;SDS011;43154;50.966;18.316;2023-01-24T00:09:18;70.80;;;21.50;;
57311;SDS011;43154;50.966;18.316;2023-01-24T00:11:44;72.80;;;22.70;;
57311;SDS011;43154;50.966;18.316;2023-01-24T00:14:09;69.80;;;21.80;;
57311;SDS011;43154;50.966;18.316;2023-01-24T00:16:35;67.40;;;22.40;;
57311;SDS011;43154;50.966;18.316;2023-01-24T00:19:01;67.90;;;21.80;;
57311;SDS011;43154;50.966;18.316;2023-01-24T00:21:26;63.30;;;20.10;;
57311;SDS011;43154;50.966;18.316;2023-01-24T00:23:53;68.60;;;22.10;;
57311;SDS011;43154;50.966;18.316;2023-01-24T00:26:20;83.20;;;23.50;;
57311;SDS011;43154;50.966;18.316;2023-01-24T00:28:46;67.70;;;20.90;;
57311;SDS011;43154;50.966;18.316;2023-01-24T00:31:12;72.20;;;22.20;;
57311;SDS011;43154;50.966;18.316;2023-01-24T00:33:38;68.90;;;22.60;;
57311;SDS011;43154;50.966;18.316;2023-01-24T00:36:04;66.80;;;20.60;;
57311;SDS011;43154;50.966;18.316;2023-01-24T00:38:31;78.40;;;22.20;;
57311;SDS011;43154;50.966;18.316;2023-01-24T00:40:57;86.30;;;22.10;;
57311;SDS011;43154;50.966;18.316;2023-01-24T00:43:23;64.80;;;21.10;;
57311;SDS011;43154;50.966;18.316;2023-01-24T00:45:51;76.50;;;21.20;;
57311;SDS011;43154;50.966;18.316;2023-01-24T00:48:16;69.80;;;22.50;;
57311;SDS011;43154;50.966;18.316;2023-01-24T00:50:42;76.70;;;23.10;;
57311;SDS011;43154;50.966;18.316;2023-01-24T00:53:08;82.80;;;22.80;;
57311;SDS011;43154;50.966;18.316;2023-01-24T00:55:33;70.10;;;21.70;;
57311;SDS011;43154;50.966;18.316;2023-01-24T00:57:59;67.70;;;21.40;;
57311;SDS011;43154;50.966;18.316;2023-01-24T01:00:25;65.20;;;20.30;;
57311;SDS011;43154;50.966;18.316;2023-01-24T01:02:51;82.00;;;22.40;;
57311;SDS011;43154;50.966;18.316;2023-01-24T01:05:17;66.60;;;21.50;;
57311;SDS011;43154;50.966;18.316;2023-01-24T01:07:43;87.90;;;23.30;;
57311;SDS011;43154;50.966;18.316;2023-01-24T01:10:09;94.10;;;24.80;;
57311;SDS011;43154;50.966;18.316;2023-01-24T01:12:35;65.10;;;21.50;;
57311;SDS011;43154;50.966;18.316;2023-01-24T01:15:01;100.10;;;23.80;;
57311;SDS011;43154;50.966;18.316;2023-01-24T01:17:27;91.60;;;22.90;;
57311;SDS011;43154;50.966;18.316;2023-01-24T01:19:53;77.30;;;22.70;;
57311;SDS011;43154;50.966;18.316;2023-01-24T01:22:19;88.10;;;24.10;;
57311;SDS011;43154;50.966;18.316;2023-01-24T01:24:45;78.70;;;23.80;;
57311;SDS011;43154;50.966;18.316;2023-01-24T01:27:11;76.90;;;22.20;;
57311;SDS011;43154;50.966;18.316;2023-01-24T01:29:37;100.40;;;25.30;;
57311;SDS011;43154;50.966;18.316;2023-01-24T01:32:03;76.70;;;22.70;;
57311;SDS011;43154;50.966;18.316;2023-01-24T01:34:29;83.90;;;22.30;;
57311;SDS011;43154;50.966;18.316;2023-01-24T01:36:55;113.00;;;24.90;;
57311;SDS011;43154;50.966;18.316;2023-01-24T01:39:21;82.30;;;22.30;;
57311;SDS011;43154;50.966;18.316;2023-01-24T01:41:46;124.70;;;24.20;;
57311;SDS011;43154;50.966;18.316;2023-01-24T01:44:19;113.90;;;23.50;;
57311;SDS011;43154;50.966;18.316;2023-01-24T01:47:05;94.80;;;23.50;;
57311;SDS011;43154;50.966;18.316;2023-01-24T01:49:37;119.40;;;25.90;;
57311;SDS011;43154;50.966;18.316;2023-01-24T01:52:06;127.60;;;25.90;;
57311;SDS011;43154;50.966;18.316;2023-01-24T01:54:34;131.20;;;24.90;;
57311;SDS011;43154;50.966;18.316;2023-01-24T01:57:06;157.30;;;27.20;;
57311;SDS011;43154;50.966;18.316;2023-01-24T01:59:35;144.30;;;27.10;;
57311;SDS011;43154;50.966;18.316;2023-01-24T02:02:06;157.50;;;28.00;;
57311;SDS011;43154;50.966;18.316;2023-01-24T02:04:34;181.90;;;27.40;;
57311;SDS011;43154;50.966;18.316;2023-01-24T02:07:17;181.20;;;28.90;;
57311;SDS011;43154;50.966;18.316;2023-01-24T02:09:47;142.40;;;27.40;;
57311;SDS011;43154;50.966;18.316;2023-01-24T02:12:19;150.50;;;29.10;;
57311;SDS011;43154;50.966;18.316;2023-01-24T02:14:50;161.90;;;27.70;;
57311;SDS011;43154;50.966;18.316;2023-01-24T02:17:37;150.80;;;28.30;;
57311;SDS011;43154;50.966;18.316;2023-01-24T02:27:44;108.00;;;25.90;;
57311;SDS011;43154;50.966;18.316;2023-01-24T02:30:10;148.10;;;26.90;;
57311;SDS011;43154;50.966;18.316;2023-01-24T02:32:36;129.00;;;27.00;;
57311;SDS011;43154;50.966;18.316;2023-01-24T02:35:02;87.10;;;23.80;;
57311;SDS011;43154;50.966;18.316;2023-01-24T02:37:29;122.50;;;26.70;;
57311;SDS011;43154;50.966;18.316;2023-01-24T02:39:59;131.30;;;26.80;;
57311;SDS011;43154;50.966;18.316;2023-01-24T02:42:30;95.20;;;24.70;;
57311;SDS011;43154;50.966;18.316;2023-01-24T02:45:10;156.10;;;27.80;;
57311;SDS011;43154;50.966;18.316;2023-01-24T02:47:43;149.20;;;25.70;;
57311;SDS011;43154;50.966;18.316;2023-01-24T02:52:36;102.20;;;23.90;;
57311;SDS011;43154;50.966;18.316;2023-01-24T02:55:20;158.80;;;25.10;;
57311;SDS011;43154;50.966;18.316;2023-01-24T02:57:46;152.60;;;26.00;;
57311;SDS011;43154;50.966;18.316;2023-01-24T03:00:39;173.40;;;26.90;;
57311;SDS011;43154;50.966;18.316;2023-01-24T03:03:06;136.50;;;25.40;;
57311;SDS011;43154;50.966;18.316;2023-01-24T03:05:33;160.80;;;27.30;;
57311;SDS011;43154;50.966;18.316;2023-01-24T03:08:11;118.80;;;25.10;;
57311;SDS011;43154;50.966;18.316;2023-01-24T03:10:38;153.00;;;26.60;;
57311;SDS011;43154;50.966;18.316;2023-01-24T03:13:04;137.90;;;26.80;;
57311;SDS011;43154;50.966;18.316;2023-01-24T03:15:48;71.30;;;22.00;;
57311;SDS011;43154;50.966;18.316;2023-01-24T03:18:33;99.90;;;23.70;;
57311;SDS011;43154;50.966;18.316;2023-01-24T03:21:17;76.40;;;22.30;;
57311;SDS011;43154;50.966;18.316;2023-01-24T03:24:01;86.50;;;23.70;;
57311;SDS011;43154;50.966;18.316;2023-01-24T03:37:49;79.80;;;24.40;;
57311;SDS011;43154;50.966;18.316;2023-01-24T03:52:04;100.80;;;25.80;;
57311;SDS011;43154;50.966;18.316;2023-01-24T03:54:49;98.20;;;26.20;;
57311;SDS011;43154;50.966;18.316;2023-01-24T03:57:14;97.20;;;26.30;;
57311;SDS011;43154;50.966;18.316;2023-01-24T03:59:40;89.90;;;24.50;;
57311;SDS011;43154;50.966;18.316;2023-01-24T04:02:05;102.90;;;26.50;;
57311;SDS011;43154;50.966;18.316;2023-01-24T04:04:31;103.00;;;26.60;;
57311;SDS011;43154;50.966;18.316;2023-01-24T04:07:16;93.00;;;26.40;;
57311;SDS011;43154;50.966;18.316;2023-01-24T04:09:42;85.30;;;24.90;;
57311;SDS011;43154;50.966;18.316;2023-01-24T04:12:08;93.60;;;25.60;;
57311;SDS011;43154;50.966;18.316;2023-01-24T04:14:34;97.40;;;26.90;;
57311;SDS011;43154;50.966;18.316;2023-01-24T04:17:00;80.60;;;24.00;;
57311;SDS011;43154;50.966;18.316;2023-01-24T04:19:25;108.00;;;27.30;;
57311;SDS011;43154;50.966;18.316;2023-01-24T04:21:51;111.80;;;28.90;;
57311;SDS011;43154;50.966;18.316;2023-01-24T04:24:16;95.30;;;25.40;;
57311;SDS011;43154;50.966;18.316;2023-01-24T04:26:42;86.30;;;25.70;;
57311;SDS011;43154;50.966;18.316;2023-01-24T04:29:07;91.00;;;26.90;;
57311;SDS011;43154;50.966;18.316;2023-01-24T04:31:34;101.40;;;26.40;;
57311;SDS011;43154;50.966;18.316;2023-01-24T04:33:59;98.00;;;26.80;;
57311;SDS011;43154;50.966;18.316;2023-01-24T04:36:25;92.10;;;25.90;;
57311;SDS011;43154;50.966;18.316;2023-01-24T04:38:51;88.00;;;26.00;;
57311;SDS011;43154;50.966;18.316;2023-01-24T04:41:16;93.60;;;25.40;;
57311;SDS011;43154;50.966;18.316;2023-01-24T04:43:42;103.00;;;27.50;;
57311;SDS011;43154;50.966;18.316;2023-01-24T04:46:08;107.20;;;27.70;;
57311;SDS011;43154;50.966;18.316;2023-01-24T04:48:34;94.90;;;26.00;;
57311;SDS011;43154;50.966;18.316;2023-01-24T04:51:00;105.00;;;28.40;;
57311;SDS011;43154;50.966;18.316;2023-01-24T04:53:26;88.80;;;25.80;;
57311;SDS011;43154;50.966;18.316;2023-01-24T04:55:52;95.50;;;26.20;;
57311;SDS011;43154;50.966;18.316;2023-01-24T04:58:18;81.50;;;24.80;;
57311;SDS011;43154;50.966;18.316;2023-01-24T05:00:43;73.90;;;24.00;;
57311;SDS011;43154;50.966;18.316;2023-01-24T05:03:09;95.90;;;26.40;;
57311;SDS011;43154;50.966;18.316;2023-01-24T05:05:34;105.50;;;27.30;;
57311;SDS011;43154;50.966;18.316;2023-01-24T05:08:00;102.40;;;26.40;;
57311;SDS011;43154;50.966;18.316;2023-01-24T05:10:26;101.60;;;27.10;;
57311;SDS011;43154;50.966;18.316;2023-01-24T05:12:52;112.80;;;28.40;;
57311;SDS011;43154;50.966;18.316;2023-01-24T05:15:17;106.10;;;26.20;;
57311;SDS011;43154;50.966;18.316;2023-01-24T05:17:44;97.50;;;27.40;;
57311;SDS011;43154;50.966;18.316;2023-01-24T05:20:10;95.20;;;25.00;;
57311;SDS011;43154;50.966;18.316;2023-01-24T05:22:36;84.60;;;24.30;;
57311;SDS011;43154;50.966;18.316;2023-01-24T05:25:02;82.60;;;25.20;;
57311;SDS011;43154;50.966;18.316;2023-01-24T05:27:29;97.50;;;25.70;;
57311;SDS011;43154;50.966;18.316;2023-01-24T05:29:54;115.00;;;29.60;;
57311;SDS011;43154;50.966;18.316;2023-01-24T05:32:20;114.60;;;29.90;;
57311;SDS011;43154;50.966;18.316;2023-01-24T05:34:45;114.10;;;30.00;;
57311;SDS011;43154;50.966;18.316;2023-01-24T05:37:11;108.90;;;27.80;;
57311;SDS011;43154;50.966;18.316;2023-01-24T05:39:37;97.70;;;26.70;;
57311;SDS011;43154;50.966;18.316;2023-01-24T05:42:03;118.50;;;28.90;;
57311;SDS011;43154;50.966;18.316;2023-01-24T05:44:28;90.80;;;26.50;;
57311;SDS011;43154;50.966;18.316;2023-01-24T05:46:54;78.70;;;24.20;;
57311;SDS011;43154;50.966;18.316;2023-01-24T05:49:20;99.40;;;26.50;;
57311;SDS011;43154;50.966;18.316;2023-01-24T05:51:45;96.80;;;26.40;;
57311;SDS011;43154;50.966;18.316;2023-01-24T05:54:11;103.80;;;27.30;;
57311;SDS011;43154;50.966;18.316;2023-01-24T05:56:37;100.50;;;27.10;;
57311;SDS011;43154;50.966;18.316;2023-01-24T05:59:02;107.60;;;27.20;;
57311;SDS011;43154;50.966;18.316;2023-01-24T06:01:28;86.70;;;26.40;;
57311;SDS011;43154;50.966;18.316;2023-01-24T06:03:54;100.20;;;27.60;;
57311;SDS011;43154;50.966;18.316;2023-01-24T06:06:20;96.60;;;26.90;;
57311;SDS011;43154;50.966;18.316;2023-01-24T06:08:48;100.90;;;27.30;;
57311;SDS011;43154;50.966;18.316;2023-01-24T06:11:15;100.70;;;27.70;;
57311;SDS011;43154;50.966;18.316;2023-01-24T06:13:50;103.30;;;27.60;;
57311;SDS011;43154;50.966;18.316;2023-01-24T06:16:18;111.70;;;27.80;;
57311;SDS011;43154;50.966;18.316;2023-01-24T06:18:45;100.90;;;27.60;;
57311;SDS011;43154;50.966;18.316;2023-01-24T06:23:46;102.10;;;27.10;;
57311;SDS011;43154;50.966;18.316;2023-01-24T06:26:12;111.20;;;27.50;;
57311;SDS011;43154;50.966;18.316;2023-01-24T06:28:39;98.80;;;26.80;;
57311;SDS011;43154;50.966;18.316;2023-01-24T06:34:05;108.20;;;27.60;;
57311;SDS011;43154;50.966;18.316;2023-01-24T06:39:50;106.00;;;27.20;;
57311;SDS011;43154;50.966;18.316;2023-01-24T06:42:18;117.50;;;29.00;;
57311;SDS011;43154;50.966;18.316;2023-01-24T06:44:45;110.70;;;28.10;;
57311;SDS011;43154;50.966;18.316;2023-01-24T06:47:12;109.40;;;27.80;;
57311;SDS011;43154;50.966;18.316;2023-01-24T06:49:38;116.00;;;28.50;;
57311;SDS011;43154;50.966;18.316;2023-01-24T06:52:04;111.70;;;27.80;;
57311;SDS011;43154;50.966;18.316;2023-01-24T06:54:30;114.80;;;29.10;;
57311;SDS011;43154;50.966;18.316;2023-01-24T06:56:56;112.40;;;28.10;;
57311;SDS011;43154;50.966;18.316;2023-01-24T06:59:21;113.60;;;28.70;;
57311;SDS011;43154;50.966;18.316;2023-01-24T07:01:50;107.90;;;27.60;;
57311;SDS011;43154;50.966;18.316;2023-01-24T07:04:16;117.90;;;28.20;;
57311;SDS011;43154;50.966;18.316;2023-01-24T07:06:42;103.40;;;26.40;;
57311;SDS011;43154;50.966;18.316;2023-01-24T07:09:08;112.30;;;27.70;;
57311;SDS011;43154;50.966;18.316;2023-01-24T07:11:34;108.50;;;28.30;;
57311;SDS011;43154;50.966;18.316;2023-01-24T07:14:00;113.20;;;28.90;;
57311;SDS011;43154;50.966;18.316;2023-01-24T07:16:26;106.50;;;27.30;;
57311;SDS011;43154;50.966;18.316;2023-01-24T07:18:51;117.20;;;29.40;;
57311;SDS011;43154;50.966;18.316;2023-01-24T07:21:17;104.60;;;29.00;;
57311;SDS011;43154;50.966;18.316;2023-01-24T07:23:44;118.10;;;29.00;;
57311;SDS011;43154;50.966;18.316;2023-01-24T07:26:10;124.70;;;31.80;;
57311;SDS011;43154;50.966;18.316;2023-01-24T08:02:11;141.10;;;32.50;;
57311;SDS011;43154;50.966;18.316;2023-01-24T08:04:37;110.00;;;29.40;;
57311;SDS011;43154;50.966;18.316;2023-01-24T08:07:03;92.40;;;27.20;;
57311;SDS011;43154;50.966;18.316;2023-01-24T08:09:45;96.70;;;26.50;;
57311;SDS011;43154;50.966;18.316;2023-01-24T08:12:12;115.40;;;30.00;;
57311;SDS011;43154;50.966;18.316;2023-01-24T08:14:38;103.60;;;27.50;;
57311;SDS011;43154;50.966;18.316;2023-01-24T08:17:04;98.00;;;28.70;;
57311;SDS011;43154;50.966;18.316;2023-01-24T08:19:32;95.60;;;27.60;;
57311;SDS011;43154;50.966;18.316;2023-01-24T08:21:58;102.10;;;28.80;;
57311;SDS011;43154;50.966;18.316;2023-01-24T08:24:23;90.30;;;27.60;;
57311;SDS011;43154;50.966;18.316;2023-01-24T08:26:49;109.60;;;29.50;;
57311;SDS011;43154;50.966;18.316;2023-01-24T08:29:16;100.70;;;28.60;;
57311;SDS011;43154;50.966;18.316;2023-01-24T08:31:42;110.30;;;29.70;;
57311;SDS011;43154;50.966;18.316;2023-01-24T08:34:08;104.20;;;29.30;;
57311;SDS011;43154;50.966;18.316;2023-01-24T08:36:34;95.10;;;28.70;;
57311;SDS011;43154;50.966;18.316;2023-01-24T08:39:00;79.90;;;26.70;;
57311;SDS011;43154;50.966;18.316;2023-01-24T08:41:28;83.50;;;27.10;;
57311;SDS011;43154;50.966;18.316;2023-01-24T08:43:53;98.50;;;28.40;;
57311;SDS011;43154;50.966;18.316;2023-01-24T08:46:19;96.90;;;29.40;;
57311;SDS011;43154;50.966;18.316;2023-01-24T08:48:45;97.50;;;29.20;;
57311;SDS011;43154;50.966;18.316;2023-01-24T08:51:10;94.00;;;28.10;;
57311;SDS011;43154;50.966;18.316;2023-01-24T08:53:36;93.70;;;28.40;;
57311;SDS011;43154;50.966;18.316;2023-01-24T08:56:02;103.80;;;29.10;;
57311;SDS011;43154;50.966;18.316;2023-01-24T08:58:30;82.10;;;27.40;;
57311;SDS011;43154;50.966;18.316;2023-01-24T09:00:59;103.30;;;29.50;;
57311;SDS011;43154;50.966;18.316;2023-01-24T09:03:25;87.60;;;27.70;;
57311;SDS011;43154;50.966;18.316;2023-01-24T09:05:55;83.30;;;26.60;;
57311;SDS011;43154;50.966;18.316;2023-01-24T09:08:22;88.30;;;26.80;;
57311;SDS011;43154;50.966;18.316;2023-01-24T09:10:49;85.90;;;25.90;;
57311;SDS011;43154;50.966;18.316;2023-01-24T09:13:14;86.60;;;28.30;;
57311;SDS011;43154;50.966;18.316;2023-01-24T09:15:40;91.20;;;28.30;;
57311;SDS011;43154;50.966;18.316;2023-01-24T09:18:06;86.80;;;27.20;;
57311;SDS011;43154;50.966;18.316;2023-01-24T09:20:32;81.30;;;27.20;;
57311;SDS011;43154;50.966;18.316;2023-01-24T09:22:58;91.40;;;27.60;;
57311;SDS011;43154;50.966;18.316;2023-01-24T09:25:23;88.60;;;28.80;;
57311;SDS011;43154;50.966;18.316;2023-01-24T09:27:53;84.50;;;26.90;;
57311;SDS011;43154;50.966;18.316;2023-01-24T09:30:19;87.20;;;28.80;;
57311;SDS011;43154;50.966;18.316;2023-01-24T09:32:46;99.60;;;30.60;;
57311;SDS011;43154;50.966;18.316;2023-01-24T09:35:11;111.30;;;30.50;;
57311;SDS011;43154;50.966;18.316;2023-01-24T09:37:37;99.70;;;30.00;;
57311;SDS011;43154;50.966;18.316;2023-01-24T09:40:03;90.40;;;27.90;;
57311;SDS011;43154;50.966;18.316;2023-01-24T09:42:33;100.10;;;28.70;;
57311;SDS011;43154;50.966;18.316;2023-01-24T09:50:13;91.80;;;29.90;;
57311;SDS011;43154;50.966;18.316;2023-01-24T09:52:43;88.60;;;29.20;;
57311;SDS011;43154;50.966;18.316;2023-01-24T09:55:12;84.60;;;29.00;;
57311;SDS011;43154;50.966;18.316;2023-01-24T10:00:38;76.30;;;26.20;;
57311;SDS011;43154;50.966;18.316;2023-01-24T10:03:08;88.20;;;30.10;;
57311;SDS011;43154;50.966;18.316;2023-01-24T10:05:40;93.00;;;28.70;;
57311;SDS011;43154;50.966;18.316;2023-01-24T10:10:42;79.20;;;27.40;;
57311;SDS011;43154;50.966;18.316;2023-01-24T10:19:26;70.30;;;25.80;;
57311;SDS011;43154;50.966;18.316;2023-01-24T10:21:49;79.80;;;27.10;;
57311;SDS011;43154;50.966;18.316;2023-01-24T10:24:37;72.90;;;26.80;;
57311;SDS011;43154;50.966;18.316;2023-01-24T10:27:26;76.00;;;26.70;;
57311;SDS011;43154;50.966;18.316;2023-01-24T10:29:57;90.00;;;28.10;;
57311;SDS011;43154;50.966;18.316;2023-01-24T10:32:32;88.20;;;31.60;;
57311;SDS011;43154;50.966;18.316;2023-01-24T10:35:10;76.50;;;27.30;;
57311;SDS011;43154;50.966;18.316;2023-01-24T10:37:41;71.20;;;24.90;;
57311;SDS011;43154;50.966;18.316;2023-01-24T10:40:12;70.90;;;26.20;;
57311;SDS011;43154;50.966;18.316;2023-01-24T10:42:39;65.10;;;25.20;;
57311;SDS011;43154;50.966;18.316;2023-01-24T10:48:23;62.40;;;24.50;;
57311;SDS011;43154;50.966;18.316;2023-01-24T10:51:16;68.30;;;25.00;;
57311;SDS011;43154;50.966;18.316;2023-01-24T10:53:44;66.50;;;25.60;;
57311;SDS011;43154;50.966;18.316;2023-01-24T10:56:11;65.40;;;24.80;;
57311;SDS011;43154;50.966;18.316;2023-01-24T10:58:40;60.00;;;23.00;;
57311;SDS011;43154;50.966;18.316;2023-01-24T11:01:22;68.10;;;25.80;;
57311;SDS011;43154;50.966;18.316;2023-01-24T11:03:50;63.30;;;24.80;;
57311;SDS011;43154;50.966;18.316;2023-01-24T11:06:23;68.40;;;25.10;;
57311;SDS011;43154;50.966;18.316;2023-01-24T11:09:00;62.60;;;24.80;;
57311;SDS011;43154;50.966;18.316;2023-01-24T11:11:29;63.70;;;24.50;;
57311;SDS011;43154;50.966;18.316;2023-01-24T11:13:57;60.60;;;23.00;;
57311;SDS011;43154;50.966;18.316;2023-01-24T11:16:30;59.20;;;23.20;;
57311;SDS011;43154;50.966;18.316;2023-01-24T11:19:03;63.20;;;23.50;;
57311;SDS011;43154;50.966;18.316;2023-01-24T11:21:31;59.10;;;23.50;;
57311;SDS011;43154;50.966;18.316;2023-01-24T11:24:01;56.70;;;22.10;;
57311;SDS011;43154;50.966;18.316;2023-01-24T11:26:37;54.60;;;21.20;;
57311;SDS011;43154;50.966;18.316;2023-01-24T11:29:17;54.40;;;20.90;;
57311;SDS011;43154;50.966;18.316;2023-01-24T11:31:44;58.20;;;22.50;;
57311;SDS011;43154;50.966;18.316;2023-01-24T11:42:39;59.90;;;24.20;;
57311;SDS011;43154;50.966;18.316;2023-01-24T11:56:05;48.60;;;19.60;;
57311;SDS011;43154;50.966;18.316;2023-01-24T12:07:04;44.80;;;17.10;;
57311;SDS011;43154;50.966;18.316;2023-01-24T12:12:29;43.60;;;16.60;;
57311;SDS011;43154;50.966;18.316;2023-01-24T12:23:39;38.60;;;15.30;;
57311;SDS011;43154;50.966;18.316;2023-01-24T12:26:24;38.90;;;15.60;;
57311;SDS011;43154;50.966;18.316;2023-01-24T12:29:06;41.90;;;15.70;;
57311;SDS011;43154;50.966;18.316;2023-01-24T12:31:51;36.70;;;14.90;;
57311;SDS011;43154;50.966;18.316;2023-01-24T12:37:35;39.10;;;15.70;;
57311;SDS011;43154;50.966;18.316;2023-01-24T12:40:15;37.40;;;14.60;;
57311;SDS011;43154;50.966;18.316;2023-01-24T12:45:31;34.70;;;14.60;;
57311;SDS011;43154;50.966;18.316;2023-01-24T12:48:09;35.50;;;14.80;;
57311;SDS011;43154;50.966;18.316;2023-01-24T12:53:31;35.20;;;14.20;;
57311;SDS011;43154;50.966;18.316;2023-01-24T12:56:11;35.80;;;14.10;;
57311;SDS011;43154;50.966;18.316;2023-01-24T12:58:41;35.80;;;13.90;;
57311;SDS011;43154;50.966;18.316;2023-01-24T13:08:38;42.10;;;15.50;;
57311;SDS011;43154;50.966;18.316;2023-01-24T13:13:57;41.90;;;15.30;;
57311;SDS011;43154;50.966;18.316;2023-01-24T13:32:16;42.90;;;17.60;;
57311;SDS011;43154;50.966;18.316;2023-01-24T13:34:44;38.50;;;14.90;;
57311;SDS011;43154;50.966;18.316;2023-01-24T13:37:31;45.10;;;15.30;;
57311;SDS011;43154;50.966;18.316;2023-01-24T13:39:58;47.20;;;16.90;;
57311;SDS011;43154;50.966;18.316;2023-01-24T13:42:38;45.30;;;17.40;;
57311;SDS011;43154;50.966;18.316;2023-01-24T13:47:48;46.50;;;17.50;;
57311;SDS011;43154;50.966;18.316;2023-01-24T13:50:23;38.60;;;14.70;;
57311;SDS011;43154;50.966;18.316;2023-01-24T13:52:52;40.80;;;15.10;;
57311;SDS011;43154;50.966;18.316;2023-01-24T13:57:48;43.50;;;15.30;;
57311;SDS011;43154;50.966;18.316;2023-01-24T14:00:18;46.20;;;16.60;;
57311;SDS011;43154;50.966;18.316;2023-01-24T14:07:58;41.30;;;15.10;;
57311;SDS011;43154;50.966;18.316;2023-01-24T14:10:38;43.10;;;15.30;;
57311;SDS011;43154;50.966;18.316;2023-01-24T14:13:10;43.60;;;16.10;;
57311;SDS011;43154;50.966;18.316;2023-01-24T14:16:09;43.30;;;16.70;;
57311;SDS011;43154;50.966;18.316;2023-01-24T14:18:53;43.60;;;16.60;;
57311;SDS011;43154;50.966;18.316;2023-01-24T14:21:24;46.50;;;16.80;;
57311;SDS011;43154;50.966;18.316;2023-01-24T14:23:57;46.00;;;17.90;;
57311;SDS011;43154;50.966;18.316;2023-01-24T14:26:27;46.90;;;18.20;;
57311;SDS011;43154;50.966;18.316;2023-01-24T14:29:03;55.40;;;19.90;;
57311;SDS011;43154;50.966;18.316;2023-01-24T14:31:36;47.70;;;17.50;;
57311;SDS011;43154;50.966;18.316;2023-01-24T14:36:32;47.90;;;17.30;;
57311;SDS011;43154;50.966;18.316;2023-01-24T14:41:58;49.70;;;17.20;;
57311;SDS011;43154;50.966;18.316;2023-01-24T14:44:33;44.20;;;17.20;;
57311;SDS011;43154;50.966;18.316;2023-01-24T14:47:18;50.40;;;18.70;;
57311;SDS011;43154;50.966;18.316;2023-01-24T14:49:49;42.80;;;15.80;;
57311;SDS011;43154;50.966;18.316;2023-01-24T14:52:27;47.00;;;16.40;;
57311;SDS011;43154;50.966;18.316;2023-01-24T14:54:55;49.20;;;17.10;;
57311;SDS011;43154;50.966;18.316;2023-01-24T14:57:24;47.70;;;18.90;;
57311;SDS011;43154;50.966;18.316;2023-01-24T15:00:00;50.40;;;19.10;;
57311;SDS011;43154;50.966;18.316;2023-01-24T15:02:54;52.60;;;18.50;;
57311;SDS011;43154;50.966;18.316;2023-01-24T15:08:03;50.40;;;17.60;;
57311;SDS011;43154;50.966;18.316;2023-01-24T15:10:34;49.70;;;18.40;;
57311;SDS011;43154;50.966;18.316;2023-01-24T15:13:03;51.10;;;17.90;;
57311;SDS011;43154;50.966;18.316;2023-01-24T15:15:31;58.50;;;19.40;;
57311;SDS011;43154;50.966;18.316;2023-01-24T15:18:04;61.10;;;20.70;;
57311;SDS011;43154;50.966;18.316;2023-01-24T15:20:33;55.80;;;19.50;;
57311;SDS011;43154;50.966;18.316;2023-01-24T15:23:00;50.90;;;18.60;;
57311;SDS011;43154;50.966;18.316;2023-01-24T15:25:32;46.40;;;17.10;;
57311;SDS011;43154;50.966;18.316;2023-01-24T15:28:09;50.70;;;17.50;;
57311;SDS011;43154;50.966;18.316;2023-01-24T15:30:51;50.50;;;18.70;;
57311;SDS011;43154;50.966;18.316;2023-01-24T15:33:18;53.90;;;18.00;;
57311;SDS011;43154;50.966;18.316;2023-01-24T15:35:45;53.50;;;19.60;;
57311;SDS011;43154;50.966;18.316;2023-01-24T15:43:48;43.00;;;15.40;;
57311;SDS011;43154;50.966;18.316;2023-01-24T15:46:34;42.30;;;14.70;;
57311;SDS011;43154;50.966;18.316;2023-01-24T15:54:38;47.00;;;16.80;;
57311;SDS011;43154;50.966;18.316;2023-01-24T15:57:27;49.70;;;17.10;;
57311;SDS011;43154;50.966;18.316;2023-01-24T15:59:57;47.20;;;17.40;;
57311;SDS011;43154;50.966;18.316;2023-01-24T16:02:29;53.90;;;19.00;;
57311;SDS011;43154;50.966;18.316;2023-01-24T16:04:54;51.10;;;19.00;;
57311;SDS011;43154;50.966;18.316;2023-01-24T16:07:20;54.50;;;20.90;;
57311;SDS011;43154;50.966;18.316;2023-01-24T16:09:48;50.80;;;18.90;;
57311;SDS011;43154;50.966;18.316;2023-01-24T16:12:18;53.00;;;18.30;;
57311;SDS011;43154;50.966;18.316;2023-01-24T16:14:48;44.20;;;16.40;;
57311;SDS011;43154;50.966;18.316;2023-01-24T16:17:19;41.80;;;15.90;;
57311;SDS011;43154;50.966;18.316;2023-01-24T16:19:47;42.50;;;15.40;;
57311;SDS011;43154;50.966;18.316;2023-01-24T16:22:12;44.00;;;16.60;;
57311;SDS011;43154;50.966;18.316;2023-01-24T16:24:39;46.10;;;17.90;;
57311;SDS011;43154;50.966;18.316;2023-01-24T16:27:05;44.90;;;16.30;;
57311;SDS011;43154;50.966;18.316;2023-01-24T16:29:37;44.70;;;17.50;;
57311;SDS011;43154;50.966;18.316;2023-01-24T16:39:15;44.40;;;16.40;;
57311;SDS011;43154;50.966;18.316;2023-01-24T16:41:49;48.50;;;16.60;;
57311;SDS011;43154;50.966;18.316;2023-01-24T16:44:15;37.60;;;14.00;;
57311;SDS011;43154;50.966;18.316;2023-01-24T16:46:46;40.60;;;14.20;;
57311;SDS011;43154;50.966;18.316;2023-01-24T16:49:12;37.00;;;13.40;;
57311;SDS011;43154;50.966;18.316;2023-01-24T16:51:39;75.60;;;23.90;;
57311;SDS011;43154;50.966;18.316;2023-01-24T16:54:06;67.60;;;21.20;;
57311;SDS011;43154;50.966;18.316;2023-01-24T16:56:32;37.10;;;14.40;;
57311;SDS011;43154;50.966;18.316;2023-01-24T16:58:59;34.30;;;12.00;;
57311;SDS011;43154;50.966;18.316;2023-01-24T17:01:25;33.30;;;12.00;;
57311;SDS011;43154;50.966;18.316;2023-01-24T17:03:51;35.30;;;12.60;;
57311;SDS011;43154;50.966;18.316;2023-01-24T17:06:18;36.00;;;13.70;;
57311;SDS011;43154;50.966;18.316;2023-01-24T17:08:49;37.90;;;13.20;;
57311;SDS011;43154;50.966;18.316;2023-01-24T17:11:17;38.20;;;14.60;;
57311;SDS011;43154;50.966;18.316;2023-01-24T17:13:50;38.40;;;14.40;;
57311;SDS011;43154;50.966;18.316;2023-01-24T17:16:16;39.90;;;15.40;;
57311;SDS011;43154;50.966;18.316;2023-01-24T17:18:43;32.40;;;12.40;;
57311;SDS011;43154;50.966;18.316;2023-01-24T17:21:10;33.00;;;12.50;;
57311;SDS011;43154;50.966;18.316;2023-01-24T17:23:39;33.40;;;12.90;;
57311;SDS011;43154;50.966;18.316;2023-01-24T17:26:09;29.90;;;11.80;;
57311;SDS011;43154;50.966;18.316;2023-01-24T17:28:37;36.80;;;13.80;;
57311;SDS011;43154;50.966;18.316;2023-01-24T17:31:08;37.80;;;14.40;;
57311;SDS011;43154;50.966;18.316;2023-01-24T17:33:37;33.80;;;12.70;;
57311;SDS011;43154;50.966;18.316;2023-01-24T17:36:04;33.30;;;13.70;;
57311;SDS011;43154;50.966;18.316;2023-01-24T17:38:30;38.90;;;14.40;;
57311;SDS011;43154;50.966;18.316;2023-01-24T17:44:24;36.40;;;13.30;;
57311;SDS011;43154;50.966;18.316;2023-01-24T17:46:50;29.70;;;11.60;;
57311;SDS011;43154;50.966;18.316;2023-01-24T17:49:15;30.80;;;11.70;;